sensor_id;sensor_type;location;lat;lon;timestamp;pressure;altitude;pressure_sealevel;temperature;humidity
19150;BME280;9707;49.158;8.632;2023-12-22T00:01:39;99188.84;;;18.27;37.25
19150;BME280;9707;49.158;8.632;2023-12-22T00:04:05;99195.09;;;18.27;37.13
19150;BME280;9707;49.158;8.632;2023-12-22T00:06:32;99187.00;;;18.27;37.07
19150;BME280;9707;49.158;8.632;2023-12-22T00:08:57;99217.66;;;18.26;36.85
19150;BME280;9707;49.158;8.632;2023-12-22T00:11:22;99209.69;;;18.25;36.68
19150;BME280;9707;49.158;8.632;2023-12-22T00:13:47;99205.31;;;18.24;36.79
19150;BME280;9707;49.158;8.632;2023-12-22T00:16:13;99217.34;;;18.20;36.76
19150;BME280;9707;49.158;8.632;2023-12-22T00:18:38;99218.31;;;18.19;37.16
19150;BME280;9707;49.158;8.632;2023-12-22T00:21:03;99209.38;;;18.18;37.30
19150;BME280;9707;49.158;8.632;2023-12-22T00:23:29;99198.47;;;18.20;37.18
19150;BME280;9707;49.158;8.632;2023-12-22T00:25:54;99201.88;;;18.22;37.27
19150;BME280;9707;49.158;8.632;2023-12-22T00:28:19;99205.44;;;18.22;37.35
19150;BME280;9707;49.158;8.632;2023-12-22T00:30:45;99195.22;;;18.26;37.53
19150;BME280;9707;49.158;8.632;2023-12-22T00:33:10;99190.56;;;18.28;37.22
19150;BME280;9707;49.158;8.632;2023-12-22T00:35:35;99192.09;;;18.30;37.12
19150;BME280;9707;49.158;8.632;2023-12-22T00:38:01;99188.56;;;18.30;36.82
19150;BME280;9707;49.158;8.632;2023-12-22T00:40:26;99184.88;;;18.31;36.77
19150;BME280;9707;49.158;8.632;2023-12-22T00:42:51;99193.97;;;18.30;36.76
19150;BME280;9707;49.158;8.632;2023-12-22T00:45:16;99196.66;;;18.30;36.82
19150;BME280;9707;49.158;8.632;2023-12-22T00:47:42;99205.59;;;18.30;37.01
19150;BME280;9707;49.158;8.632;2023-12-22T00:50:07;99191.28;;;18.30;37.02
19150;BME280;9707;49.158;8.632;2023-12-22T00:52:33;99187.59;;;18.31;36.47
19150;BME280;9707;49.158;8.632;2023-12-22T00:54:58;99171.41;;;18.31;37.38
19150;BME280;9707;49.158;8.632;2023-12-22T00:57:23;99167.72;;;18.32;37.38
19150;BME280;9707;49.158;8.632;2023-12-22T00:59:49;99173.00;;;18.33;37.39
19150;BME280;9707;49.158;8.632;2023-12-22T01:02:15;99168.47;;;18.34;37.24
19150;BME280;9707;49.158;8.632;2023-12-22T01:04:40;99176.56;;;18.34;37.01
19150;BME280;9707;49.158;8.632;2023-12-22T01:07:09;99167.50;;;18.35;37.09
19150;BME280;9707;49.158;8.632;2023-12-22T01:09:35;99155.00;;;18.34;36.75
19150;BME280;9707;49.158;8.632;2023-12-22T01:12:02;99149.63;;;18.34;36.67
19150;BME280;9707;49.158;8.632;2023-12-22T01:14:29;99165.78;;;18.34;36.82
19150;BME280;9707;49.158;8.632;2023-12-22T01:16:54;99164.06;;;18.33;36.78
19150;BME280;9707;49.158;8.632;2023-12-22T01:19:20;99166.00;;;18.31;36.88
19150;BME280;9707;49.158;8.632;2023-12-22T01:21:45;99163.31;;;18.31;36.67
19150;BME280;9707;49.158;8.632;2023-12-22T01:24:10;99155.22;;;18.31;36.78
19150;BME280;9707;49.158;8.632;2023-12-22T01:26:36;99169.44;;;18.33;37.17
19150;BME280;9707;49.158;8.632;2023-12-22T01:29:01;99172.16;;;18.33;36.75
19150;BME280;9707;49.158;8.632;2023-12-22T01:31:26;99184.88;;;18.31;36.81
19150;BME280;9707;49.158;8.632;2023-12-22T01:33:51;99194.97;;;18.29;36.75
19150;BME280;9707;49.158;8.632;2023-12-22T01:36:17;99175.34;;;18.27;36.22
19150;BME280;9707;49.158;8.632;2023-12-22T01:38:42;99190.13;;;18.23;36.33
19150;BME280;9707;49.158;8.632;2023-12-22T01:41:07;99208.25;;;18.21;36.47
19150;BME280;9707;49.158;8.632;2023-12-22T01:43:33;99210.25;;;18.19;36.55
19150;BME280;9707;49.158;8.632;2023-12-22T01:45:59;99209.38;;;18.18;36.50
19150;BME280;9707;49.158;8.632;2023-12-22T01:48:25;99197.75;;;18.18;36.45
19150;BME280;9707;49.158;8.632;2023-12-22T01:50:52;99207.81;;;18.16;36.20
19150;BME280;9707;49.158;8.632;2023-12-22T01:53:19;99230.38;;;18.15;36.14
19150;BME280;9707;49.158;8.632;2023-12-22T01:55:46;99226.97;;;18.13;36.04
19150;BME280;9707;49.158;8.632;2023-12-22T01:58:13;99222.53;;;18.12;35.76
19150;BME280;9707;49.158;8.632;2023-12-22T02:00:38;99214.59;;;18.10;35.35
19150;BME280;9707;49.158;8.632;2023-12-22T02:03:04;99213.03;;;18.08;35.47
19150;BME280;9707;49.158;8.632;2023-12-22T02:05:30;99215.84;;;18.06;35.04
19150;BME280;9707;49.158;8.632;2023-12-22T02:07:55;99206.19;;;18.04;35.52
19150;BME280;9707;49.158;8.632;2023-12-22T02:10:20;99216.97;;;18.04;35.43
19150;BME280;9707;49.158;8.632;2023-12-22T02:12:46;99221.50;;;18.03;35.24
19150;BME280;9707;49.158;8.632;2023-12-22T02:15:11;99197.38;;;18.02;35.10
19150;BME280;9707;49.158;8.632;2023-12-22T02:17:53;99204.75;;;18.00;35.01
19150;BME280;9707;49.158;8.632;2023-12-22T02:20:21;99189.44;;;18.00;34.91
19150;BME280;9707;49.158;8.632;2023-12-22T02:22:51;99188.59;;;18.00;34.87
19150;BME280;9707;49.158;8.632;2023-12-22T02:25:17;99188.59;;;18.00;34.63
19150;BME280;9707;49.158;8.632;2023-12-22T02:27:47;99190.56;;;17.98;34.60
19150;BME280;9707;49.158;8.632;2023-12-22T02:30:24;99195.97;;;17.98;34.59
19150;BME280;9707;49.158;8.632;2023-12-22T02:32:53;99196.09;;;17.96;34.67
19150;BME280;9707;49.158;8.632;2023-12-22T02:35:22;99184.44;;;17.96;34.43
19150;BME280;9707;49.158;8.632;2023-12-22T02:37:49;99192.53;;;17.96;34.89
19150;BME280;9707;49.158;8.632;2023-12-22T02:40:16;99181.75;;;17.96;34.83
19150;BME280;9707;49.158;8.632;2023-12-22T02:42:42;99183.47;;;17.97;34.94
19150;BME280;9707;49.158;8.632;2023-12-22T02:45:16;99199.63;;;17.97;34.52
19150;BME280;9707;49.158;8.632;2023-12-22T02:47:42;99197.91;;;17.96;34.85
19150;BME280;9707;49.158;8.632;2023-12-22T02:50:08;99198.78;;;17.96;34.68
19150;BME280;9707;49.158;8.632;2023-12-22T02:52:34;99202.47;;;17.95;34.41
19150;BME280;9707;49.158;8.632;2023-12-22T02:55:00;99205.28;;;17.94;34.67
19150;BME280;9707;49.158;8.632;2023-12-22T02:57:25;99227.84;;;17.93;34.64
19150;BME280;9707;49.158;8.632;2023-12-22T02:59:51;99218.03;;;17.92;34.88
19150;BME280;9707;49.158;8.632;2023-12-22T03:02:16;99219.75;;;17.93;34.69
19150;BME280;9707;49.158;8.632;2023-12-22T03:04:42;99223.41;;;17.92;35.01
19150;BME280;9707;49.158;8.632;2023-12-22T03:07:07;99226.09;;;17.92;34.84
19150;BME280;9707;49.158;8.632;2023-12-22T03:09:32;99224.41;;;17.91;34.93
19150;BME280;9707;49.158;8.632;2023-12-22T03:11:59;99227.97;;;17.91;34.73
19150;BME280;9707;49.158;8.632;2023-12-22T03:14:29;99225.16;;;17.93;35.21
19150;BME280;9707;49.158;8.632;2023-12-22T03:16:55;99225.16;;;17.93;35.11
19150;BME280;9707;49.158;8.632;2023-12-22T03:19:20;99229.53;;;17.94;34.86
19150;BME280;9707;49.158;8.632;2023-12-22T03:21:47;99217.06;;;17.93;34.85
19150;BME280;9707;49.158;8.632;2023-12-22T03:24:13;99214.38;;;17.93;34.88
19150;BME280;9707;49.158;8.632;2023-12-22T03:26:38;99228.69;;;17.93;34.74
19150;BME280;9707;49.158;8.632;2023-12-22T03:29:03;99230.53;;;17.93;34.64
19150;BME280;9707;49.158;8.632;2023-12-22T03:31:28;99230.66;;;17.91;34.74
19150;BME280;9707;49.158;8.632;2023-12-22T03:33:54;99232.50;;;17.91;34.74
19150;BME280;9707;49.158;8.632;2023-12-22T03:36:19;99236.31;;;17.88;34.48
19150;BME280;9707;49.158;8.632;2023-12-22T03:38:44;99245.25;;;17.89;34.80
19150;BME280;9707;49.158;8.632;2023-12-22T03:41:09;99256.03;;;17.89;34.76
19150;BME280;9707;49.158;8.632;2023-12-22T03:43:35;99256.75;;;17.91;35.25
19150;BME280;9707;49.158;8.632;2023-12-22T03:46:00;99244.13;;;17.91;35.64
19150;BME280;9707;49.158;8.632;2023-12-22T03:48:25;99256.88;;;17.89;35.71
19150;BME280;9707;49.158;8.632;2023-12-22T03:50:50;99243.81;;;17.85;35.94
19150;BME280;9707;49.158;8.632;2023-12-22T03:53:16;99286.19;;;17.83;36.28
19150;BME280;9707;49.158;8.632;2023-12-22T03:55:41;99291.13;;;17.78;36.47
19150;BME280;9707;49.158;8.632;2023-12-22T03:58:06;99268.25;;;17.72;37.15
19150;BME280;9707;49.158;8.632;2023-12-22T04:00:33;99260.41;;;17.69;37.48
19150;BME280;9707;49.158;8.632;2023-12-22T04:02:58;99259.81;;;17.66;37.58
19150;BME280;9707;49.158;8.632;2023-12-22T04:05:24;99269.75;;;17.65;37.96
19150;BME280;9707;49.158;8.632;2023-12-22T04:07:49;99257.13;;;17.66;37.97
19150;BME280;9707;49.158;8.632;2023-12-22T04:10:16;99256.13;;;17.67;38.17
19150;BME280;9707;49.158;8.632;2023-12-22T04:12:42;99241.56;;;17.69;38.09
19150;BME280;9707;49.158;8.632;2023-12-22T04:15:08;99241.44;;;17.71;38.12
19150;BME280;9707;49.158;8.632;2023-12-22T04:17:33;99235.91;;;17.72;38.13
19150;BME280;9707;49.158;8.632;2023-12-22T04:19:58;99232.13;;;17.75;38.01
19150;BME280;9707;49.158;8.632;2023-12-22T04:22:23;99227.59;;;17.75;37.92
19150;BME280;9707;49.158;8.632;2023-12-22T04:24:49;99240.91;;;17.77;37.58
19150;BME280;9707;49.158;8.632;2023-12-22T04:27:14;99243.47;;;17.78;37.81
19150;BME280;9707;49.158;8.632;2023-12-22T04:29:39;99236.13;;;17.80;37.76
19150;BME280;9707;49.158;8.632;2023-12-22T04:32:04;99233.28;;;17.82;37.37
19150;BME280;9707;49.158;8.632;2023-12-22T04:34:30;99233.16;;;17.83;37.05
19150;BME280;9707;49.158;8.632;2023-12-22T04:36:55;99242.22;;;17.82;36.97
19150;BME280;9707;49.158;8.632;2023-12-22T04:39:20;99260.22;;;17.82;36.86
19150;BME280;9707;49.158;8.632;2023-12-22T04:41:45;99242.34;;;17.81;36.83
19150;BME280;9707;49.158;8.632;2023-12-22T04:44:11;99257.69;;;17.80;36.61
19150;BME280;9707;49.158;8.632;2023-12-22T04:46:36;99247.75;;;17.81;36.61
19150;BME280;9707;49.158;8.632;2023-12-22T04:49:01;99268.56;;;17.79;36.29
19150;BME280;9707;49.158;8.632;2023-12-22T04:51:27;99286.56;;;17.78;36.14
19150;BME280;9707;49.158;8.632;2023-12-22T04:53:52;99288.56;;;17.76;35.92
19150;BME280;9707;49.158;8.632;2023-12-22T04:56:17;99271.53;;;17.76;36.00
19150;BME280;9707;49.158;8.632;2023-12-22T04:58:42;99286.84;;;17.75;35.59
19150;BME280;9707;49.158;8.632;2023-12-22T05:01:08;99288.91;;;17.72;35.41
19150;BME280;9707;49.158;8.632;2023-12-22T05:03:33;99273.75;;;17.71;35.64
19150;BME280;9707;49.158;8.632;2023-12-22T05:05:58;99265.09;;;17.67;35.87
19150;BME280;9707;49.158;8.632;2023-12-22T05:08:23;99272.28;;;17.67;35.93
19150;BME280;9707;49.158;8.632;2023-12-22T05:10:49;99273.03;;;17.69;35.97
19150;BME280;9707;49.158;8.632;2023-12-22T05:13:14;99270.22;;;17.70;35.88
19150;BME280;9707;49.158;8.632;2023-12-22T05:15:39;99266.41;;;17.73;35.75
19150;BME280;9707;49.158;8.632;2023-12-22T05:18:04;99276.31;;;17.72;36.05
19150;BME280;9707;49.158;8.632;2023-12-22T05:20:30;99273.50;;;17.74;35.93
19150;BME280;9707;49.158;8.632;2023-12-22T05:22:56;99281.59;;;17.74;36.07
19150;BME280;9707;49.158;8.632;2023-12-22T05:25:21;99279.88;;;17.73;36.16
19150;BME280;9707;49.158;8.632;2023-12-22T05:27:47;99286.97;;;17.74;36.12
19150;BME280;9707;49.158;8.632;2023-12-22T05:30:12;99299.56;;;17.73;36.11
19150;BME280;9707;49.158;8.632;2023-12-22T05:32:38;99291.63;;;17.72;36.05
19150;BME280;9707;49.158;8.632;2023-12-22T05:35:03;99295.28;;;17.71;36.23
19150;BME280;9707;49.158;8.632;2023-12-22T05:37:29;99288.22;;;17.70;35.71
19150;BME280;9707;49.158;8.632;2023-12-22T05:39:54;99298.97;;;17.70;36.31
19150;BME280;9707;49.158;8.632;2023-12-22T05:42:20;99312.56;;;17.68;35.87
19150;BME280;9707;49.158;8.632;2023-12-22T05:44:46;99315.38;;;17.67;36.12
19150;BME280;9707;49.158;8.632;2023-12-22T05:47:15;99311.97;;;17.65;35.58
19150;BME280;9707;49.158;8.632;2023-12-22T05:49:40;99320.31;;;17.62;35.60
19150;BME280;9707;49.158;8.632;2023-12-22T05:52:06;99329.66;;;17.58;35.84
19150;BME280;9707;49.158;8.632;2023-12-22T05:54:31;99317.16;;;17.57;35.89
19150;BME280;9707;49.158;8.632;2023-12-22T05:56:56;99328.78;;;17.57;35.90
19150;BME280;9707;49.158;8.632;2023-12-22T05:59:22;99337.72;;;17.58;35.75
19150;BME280;9707;49.158;8.632;2023-12-22T06:01:47;99316.19;;;17.58;35.74
19150;BME280;9707;49.158;8.632;2023-12-22T06:04:12;99337.72;;;17.58;35.78
19150;BME280;9707;49.158;8.632;2023-12-22T06:06:37;99323.16;;;17.60;35.81
19150;BME280;9707;49.158;8.632;2023-12-22T06:09:04;99331.94;;;17.62;36.12
19150;BME280;9707;49.158;8.632;2023-12-22T06:11:29;99315.66;;;17.64;35.91
19150;BME280;9707;49.158;8.632;2023-12-22T06:13:54;99336.81;;;17.68;35.66
19150;BME280;9707;49.158;8.632;2023-12-22T06:16:20;99340.38;;;17.69;35.74
19150;BME280;9707;49.158;8.632;2023-12-22T06:18:45;99349.16;;;17.71;35.34
19150;BME280;9707;49.158;8.632;2023-12-22T06:21:11;99334.97;;;17.69;35.44
19150;BME280;9707;49.158;8.632;2023-12-22T06:23:36;99349.56;;;17.66;35.45
19150;BME280;9707;49.158;8.632;2023-12-22T06:26:07;99353.97;;;17.67;35.17
19150;BME280;9707;49.158;8.632;2023-12-22T06:28:33;99367.53;;;17.66;35.64
19150;BME280;9707;49.158;8.632;2023-12-22T06:30:58;99359.59;;;17.64;35.38
19150;BME280;9707;49.158;8.632;2023-12-22T06:33:23;99369.41;;;17.65;35.42
19150;BME280;9707;49.158;8.632;2023-12-22T06:35:48;99380.03;;;17.67;35.50
19150;BME280;9707;49.158;8.632;2023-12-22T06:38:19;99372.69;;;17.69;35.23
19150;BME280;9707;49.158;8.632;2023-12-22T06:40:44;99369.00;;;17.70;35.12
19150;BME280;9707;49.158;8.632;2023-12-22T06:43:11;99361.91;;;17.69;34.81
19150;BME280;9707;49.158;8.632;2023-12-22T06:45:36;99370.22;;;17.66;34.63
19150;BME280;9707;49.158;8.632;2023-12-22T06:48:02;99384.81;;;17.63;35.09
19150;BME280;9707;49.158;8.632;2023-12-22T06:50:27;99364.97;;;17.64;34.52
19150;BME280;9707;49.158;8.632;2023-12-22T06:52:52;99373.22;;;17.63;34.71
19150;BME280;9707;49.158;8.632;2023-12-22T06:55:18;99381.75;;;17.57;34.56
19150;BME280;9707;49.158;8.632;2023-12-22T06:57:43;99381.56;;;17.49;34.79
19150;BME280;9707;49.158;8.632;2023-12-22T07:00:09;99406.31;;;17.43;35.21
19150;BME280;9707;49.158;8.632;2023-12-22T07:02:34;99396.53;;;17.42;35.47
19150;BME280;9707;49.158;8.632;2023-12-22T07:07:48;99414.84;;;17.48;35.63
19150;BME280;9707;49.158;8.632;2023-12-22T07:10:13;99410.94;;;17.52;35.71
19150;BME280;9707;49.158;8.632;2023-12-22T07:12:38;99402.59;;;17.55;36.10
19150;BME280;9707;49.158;8.632;2023-12-22T07:15:07;99397.91;;;17.57;36.21
19150;BME280;9707;49.158;8.632;2023-12-22T07:17:33;99415.81;;;17.58;36.20
19150;BME280;9707;49.158;8.632;2023-12-22T07:19:58;99406.88;;;17.57;36.31
19150;BME280;9707;49.158;8.632;2023-12-22T07:22:23;99416.53;;;17.60;36.35
19150;BME280;9707;49.158;8.632;2023-12-22T07:24:48;99414.56;;;17.62;36.54
19150;BME280;9707;49.158;8.632;2023-12-22T07:27:15;99416.28;;;17.63;36.53
19150;BME280;9707;49.158;8.632;2023-12-22T07:29:40;99422.41;;;17.65;36.60
19150;BME280;9707;49.158;8.632;2023-12-22T07:32:05;99416.03;;;17.66;36.61
19150;BME280;9707;49.158;8.632;2023-12-22T07:34:31;99432.19;;;17.66;36.58
19150;BME280;9707;49.158;8.632;2023-12-22T07:36:56;99418.00;;;17.64;36.54
19150;BME280;9707;49.158;8.632;2023-12-22T07:39:21;99422.50;;;17.63;36.74
19150;BME280;9707;49.158;8.632;2023-12-22T07:41:47;99426.06;;;17.64;36.95
19150;BME280;9707;49.158;8.632;2023-12-22T07:44:13;99433.28;;;17.63;37.29
19150;BME280;9707;49.158;8.632;2023-12-22T07:46:39;99433.28;;;17.63;37.69
19150;BME280;9707;49.158;8.632;2023-12-22T07:49:04;99442.94;;;17.66;38.11
19150;BME280;9707;49.158;8.632;2023-12-22T07:51:29;99443.69;;;17.68;38.29
19150;BME280;9707;49.158;8.632;2023-12-22T07:53:54;99455.19;;;17.70;38.11
19150;BME280;9707;49.158;8.632;2023-12-22T07:56:20;99463.38;;;17.68;38.13
19150;BME280;9707;49.158;8.632;2023-12-22T07:58:45;99469.38;;;17.72;38.15
19150;BME280;9707;49.158;8.632;2023-12-22T08:01:10;99457.63;;;17.73;38.43
19150;BME280;9707;49.158;8.632;2023-12-22T08:03:35;99459.22;;;17.75;38.54
19150;BME280;9707;49.158;8.632;2023-12-22T08:06:02;99460.94;;;17.76;38.61
19150;BME280;9707;49.158;8.632;2023-12-22T08:08:28;99462.50;;;17.79;38.73
19150;BME280;9707;49.158;8.632;2023-12-22T08:10:53;99459.81;;;17.79;38.72
19150;BME280;9707;49.158;8.632;2023-12-22T08:13:19;99476.59;;;17.82;38.65
19150;BME280;9707;49.158;8.632;2023-12-22T08:15:44;99462.88;;;17.85;38.65
19150;BME280;9707;49.158;8.632;2023-12-22T08:18:09;99461.88;;;17.86;38.77
19150;BME280;9707;49.158;8.632;2023-12-22T08:20:35;99464.31;;;17.89;39.04
19150;BME280;9707;49.158;8.632;2023-12-22T08:23:00;99482.81;;;17.94;38.74
19150;BME280;9707;49.158;8.632;2023-12-22T08:25:26;99469.94;;;17.97;38.83
19150;BME280;9707;49.158;8.632;2023-12-22T08:27:51;99483.00;;;18.02;38.81
19150;BME280;9707;49.158;8.632;2023-12-22T08:30:17;99467.47;;;18.05;38.84
19150;BME280;9707;49.158;8.632;2023-12-22T08:32:42;99483.22;;;18.10;38.64
19150;BME280;9707;49.158;8.632;2023-12-22T08:35:08;99475.75;;;18.13;38.64
19150;BME280;9707;49.158;8.632;2023-12-22T08:37:33;99461.44;;;18.13;38.20
19150;BME280;9707;49.158;8.632;2023-12-22T08:39:58;99464.13;;;18.13;39.07
19150;BME280;9707;49.158;8.632;2023-12-22T08:42:28;99460.69;;;18.11;39.14
19150;BME280;9707;49.158;8.632;2023-12-22T08:44:54;99459.84;;;18.10;39.22
19150;BME280;9707;49.158;8.632;2023-12-22T08:47:19;99470.88;;;18.07;39.35
19150;BME280;9707;49.158;8.632;2023-12-22T08:49:44;99471.00;;;18.06;39.39
19150;BME280;9707;49.158;8.632;2023-12-22T08:52:10;99486.44;;;18.04;39.37
19150;BME280;9707;49.158;8.632;2023-12-22T08:54:35;99497.22;;;18.04;39.44
19150;BME280;9707;49.158;8.632;2023-12-22T08:57:02;99482.03;;;18.03;39.33
19150;BME280;9707;49.158;8.632;2023-12-22T08:59:27;99481.19;;;18.02;39.25
19150;BME280;9707;49.158;8.632;2023-12-22T09:01:52;99473.22;;;18.01;39.25
19150;BME280;9707;49.158;8.632;2023-12-22T09:04:18;99475.91;;;18.01;39.36
19150;BME280;9707;49.158;8.632;2023-12-22T09:06:43;99466.84;;;18.02;39.20
19150;BME280;9707;49.158;8.632;2023-12-22T09:09:08;99459.75;;;18.01;38.87
19150;BME280;9707;49.158;8.632;2023-12-22T09:11:36;99465.13;;;18.01;39.05
19150;BME280;9707;49.158;8.632;2023-12-22T09:14:02;99471.50;;;18.00;38.73
19150;BME280;9707;49.158;8.632;2023-12-22T09:16:27;99472.50;;;17.99;38.51
19150;BME280;9707;49.158;8.632;2023-12-22T09:18:52;99460.84;;;17.98;38.67
19150;BME280;9707;49.158;8.632;2023-12-22T09:21:18;99463.41;;;18.00;38.41
19150;BME280;9707;49.158;8.632;2023-12-22T09:23:45;99463.41;;;18.00;38.22
19150;BME280;9707;49.158;8.632;2023-12-22T09:26:12;99466.84;;;18.02;38.05
19150;BME280;9707;49.158;8.632;2023-12-22T09:28:37;99465.13;;;18.01;38.04
19150;BME280;9707;49.158;8.632;2023-12-22T09:31:03;99487.44;;;18.03;37.85
19150;BME280;9707;49.158;8.632;2023-12-22T09:33:30;99485.69;;;18.02;37.80
19150;BME280;9707;49.158;8.632;2023-12-22T09:35:56;99490.13;;;18.03;37.52
19150;BME280;9707;49.158;8.632;2023-12-22T09:38:21;99497.34;;;18.02;36.96
19150;BME280;9707;49.158;8.632;2023-12-22T09:40:49;99478.88;;;17.98;37.03
19150;BME280;9707;49.158;8.632;2023-12-22T09:43:14;99477.13;;;17.97;37.35
19150;BME280;9707;49.158;8.632;2023-12-22T09:45:40;99479.84;;;17.97;37.18
19150;BME280;9707;49.158;8.632;2023-12-22T09:48:06;99485.22;;;17.97;37.02
19150;BME280;9707;49.158;8.632;2023-12-22T09:50:33;99474.44;;;17.97;36.70
19150;BME280;9707;49.158;8.632;2023-12-22T09:53:00;99478.13;;;17.96;37.05
19150;BME280;9707;49.158;8.632;2023-12-22T09:55:25;99475.44;;;17.96;36.83
19150;BME280;9707;49.158;8.632;2023-12-22T09:57:52;99475.44;;;17.96;36.71
19150;BME280;9707;49.158;8.632;2023-12-22T10:00:18;99471.91;;;17.95;36.69
19150;BME280;9707;49.158;8.632;2023-12-22T10:02:43;99468.22;;;17.96;36.57
19150;BME280;9707;49.158;8.632;2023-12-22T10:05:10;99454.75;;;17.96;36.60
19150;BME280;9707;49.158;8.632;2023-12-22T10:07:38;99452.88;;;17.97;36.58
19150;BME280;9707;49.158;8.632;2023-12-22T10:10:05;99452.88;;;17.97;36.72
19150;BME280;9707;49.158;8.632;2023-12-22T10:12:33;99446.53;;;17.98;36.65
19150;BME280;9707;49.158;8.632;2023-12-22T10:15:00;99441.88;;;18.00;36.46
19150;BME280;9707;49.158;8.632;2023-12-22T10:17:26;99451.66;;;18.01;36.46
19150;BME280;9707;49.158;8.632;2023-12-22T10:19:51;99449.81;;;18.01;36.42
19150;BME280;9707;49.158;8.632;2023-12-22T10:22:17;99450.66;;;18.02;36.22
19150;BME280;9707;49.158;8.632;2023-12-22T10:24:46;99451.66;;;18.01;36.28
19150;BME280;9707;49.158;8.632;2023-12-22T10:27:17;99433.78;;;18.00;36.17
19150;BME280;9707;49.158;8.632;2023-12-22T10:29:56;99442.75;;;18.00;36.23
19150;BME280;9707;49.158;8.632;2023-12-22T10:32:22;99444.56;;;18.00;36.37
19150;BME280;9707;49.158;8.632;2023-12-22T10:34:48;99454.34;;;18.01;36.67
19150;BME280;9707;49.158;8.632;2023-12-22T10:37:15;99445.28;;;18.02;36.62
19150;BME280;9707;49.158;8.632;2023-12-22T10:39:41;99433.38;;;18.04;36.55
19150;BME280;9707;49.158;8.632;2023-12-22T10:42:06;99434.13;;;18.06;36.75
19150;BME280;9707;49.158;8.632;2023-12-22T10:44:32;99424.94;;;18.09;37.25
19150;BME280;9707;49.158;8.632;2023-12-22T10:46:58;99440.00;;;18.11;37.16
19150;BME280;9707;49.158;8.632;2023-12-22T10:49:25;99411.94;;;18.14;37.29
19150;BME280;9707;49.158;8.632;2023-12-22T10:51:51;99421.00;;;18.13;37.55
19150;BME280;9707;49.158;8.632;2023-12-22T10:54:18;99414.75;;;18.12;37.80
19150;BME280;9707;49.158;8.632;2023-12-22T10:56:43;99413.03;;;18.11;37.93
19150;BME280;9707;49.158;8.632;2023-12-22T10:59:09;99422.69;;;18.14;38.47
19150;BME280;9707;49.158;8.632;2023-12-22T11:01:38;99405.66;;;18.13;38.53
19150;BME280;9707;49.158;8.632;2023-12-22T11:04:09;99404.81;;;18.13;38.72
19150;BME280;9707;49.158;8.632;2023-12-22T11:06:36;99396.75;;;18.13;38.73
19150;BME280;9707;49.158;8.632;2023-12-22T11:09:11;99388.66;;;18.13;38.86
19150;BME280;9707;49.158;8.632;2023-12-22T11:11:40;99390.38;;;18.14;39.07
19150;BME280;9707;49.158;8.632;2023-12-22T11:14:06;99383.97;;;18.15;39.14
19150;BME280;9707;49.158;8.632;2023-12-22T11:16:35;99373.91;;;18.17;39.37
19150;BME280;9707;49.158;8.632;2023-12-22T11:19:02;99370.25;;;18.18;39.30
19150;BME280;9707;49.158;8.632;2023-12-22T11:21:28;99360.31;;;18.18;39.63
19150;BME280;9707;49.158;8.632;2023-12-22T11:23:55;99377.22;;;18.20;39.65
19150;BME280;9707;49.158;8.632;2023-12-22T11:26:21;99373.53;;;18.21;39.67
19150;BME280;9707;49.158;8.632;2023-12-22T11:28:49;99358.19;;;18.22;39.80
19150;BME280;9707;49.158;8.632;2023-12-22T11:31:15;99352.81;;;18.22;39.91
19150;BME280;9707;49.158;8.632;2023-12-22T11:33:45;99346.59;;;18.21;39.95
19150;BME280;9707;49.158;8.632;2023-12-22T11:36:12;99332.25;;;18.21;39.91
19150;BME280;9707;49.158;8.632;2023-12-22T11:38:40;99340.19;;;18.22;40.06
19150;BME280;9707;49.158;8.632;2023-12-22T11:41:06;99332.97;;;18.23;40.04
19150;BME280;9707;49.158;8.632;2023-12-22T11:43:34;99315.81;;;18.24;40.07
19150;BME280;9707;49.158;8.632;2023-12-22T11:46:03;99323.78;;;18.25;40.10
19150;BME280;9707;49.158;8.632;2023-12-22T11:48:29;99313.81;;;18.26;40.08
19150;BME280;9707;49.158;8.632;2023-12-22T11:50:54;99298.53;;;18.26;40.08
19150;BME280;9707;49.158;8.632;2023-12-22T11:53:24;99297.66;;;18.26;40.08
19150;BME280;9707;49.158;8.632;2023-12-22T11:56:03;99305.63;;;18.27;40.01
19150;BME280;9707;49.158;8.632;2023-12-22T11:58:48;99297.78;;;18.24;40.20
19150;BME280;9707;49.158;8.632;2023-12-22T12:01:17;99288.84;;;18.24;40.18
19150;BME280;9707;49.158;8.632;2023-12-22T12:03:58;99288.72;;;18.25;40.40
19150;BME280;9707;49.158;8.632;2023-12-22T12:08:50;99278.78;;;18.26;40.26
19150;BME280;9707;49.158;8.632;2023-12-22T12:11:16;99274.13;;;18.28;40.11
19150;BME280;9707;49.158;8.632;2023-12-22T12:13:43;99274.84;;;18.30;40.16
19150;BME280;9707;49.158;8.632;2023-12-22T12:16:18;99273.13;;;18.29;40.16
19150;BME280;9707;49.158;8.632;2023-12-22T12:18:44;99277.53;;;18.30;40.16
19150;BME280;9707;49.158;8.632;2023-12-22T12:21:11;99272.16;;;18.30;40.23
19150;BME280;9707;49.158;8.632;2023-12-22T12:23:36;99260.38;;;18.31;40.39
19150;BME280;9707;49.158;8.632;2023-12-22T12:26:02;99271.28;;;18.29;40.46
19150;BME280;9707;49.158;8.632;2023-12-22T12:28:29;99275.09;;;18.27;40.62
19150;BME280;9707;49.158;8.632;2023-12-22T12:31:06;99270.69;;;18.26;40.59
19150;BME280;9707;49.158;8.632;2023-12-22T12:33:32;99261.91;;;18.24;40.80
19150;BME280;9707;49.158;8.632;2023-12-22T12:36:01;99269.13;;;18.23;40.88
19150;BME280;9707;49.158;8.632;2023-12-22T12:41:24;99259.22;;;18.24;41.10
19150;BME280;9707;49.158;8.632;2023-12-22T12:43:54;99252.81;;;18.25;41.06
19150;BME280;9707;49.158;8.632;2023-12-22T12:46:19;99257.22;;;18.26;41.15
19150;BME280;9707;49.158;8.632;2023-12-22T12:48:45;99247.31;;;18.26;41.42
19150;BME280;9707;49.158;8.632;2023-12-22T12:51:10;99250.84;;;18.27;41.46
19150;BME280;9707;49.158;8.632;2023-12-22T12:53:36;99246.31;;;18.27;41.49
19150;BME280;9707;49.158;8.632;2023-12-22T12:56:01;99252.56;;;18.28;41.66
19150;BME280;9707;49.158;8.632;2023-12-22T12:58:31;99264.88;;;18.30;41.58
19150;BME280;9707;49.158;8.632;2023-12-22T13:01:07;99254.28;;;18.29;41.66
19150;BME280;9707;49.158;8.632;2023-12-22T13:03:33;99266.75;;;18.30;41.92
19150;BME280;9707;49.158;8.632;2023-12-22T13:06:08;99251.41;;;18.30;41.70
19150;BME280;9707;49.158;8.632;2023-12-22T13:08:33;99249.72;;;18.29;41.89
19150;BME280;9707;49.158;8.632;2023-12-22T13:11:02;99250.56;;;18.30;41.97
19150;BME280;9707;49.158;8.632;2023-12-22T13:13:27;99255.09;;;18.29;42.03